Weather reports worldwide

Advertisment
Rodkallen, Sweden (2188): temperature & dewpoint: 27.05.2020 21:00:00 - 02.06.2020 21:00:00 (CEST)Rodkallen, Sweden (2188): wind speed & gusts: 27.05.2020 21:00:00 - 02.06.2020 21:00:00 (CEST)Rodkallen, Sweden (2188): wind direction: 27.05.2020 21:00:00 - 02.06.2020 21:00:00 (CEST)Rodkallen, Sweden (2188): visibility: 27.05.2020 21:00:00 - 02.06.2020 21:00:00 (CEST)Rodkallen, Sweden (2188): precipitation: 27.05.2020 21:00:00 - 02.06.2020 21:00:00 (CEST)
Date & Time tt [°C] td [°C] ff [km/h] ff [kn] fx [km/h] fx [kn] dd vv [km] rr [mm]
02.06.2020 21:00:00 11,2 9,3 19 10 29 16 SW 36 0,0
02.06.2020 20:00:00 10,7 9,3 22 12 26 14 SE 29 0,0
02.06.2020 19:00:00 10,5 9,1 15 8 27 15 SSE 26 0,0
02.06.2020 18:00:00 11,3 9,0 14 8 27 14 S 31 0,0
02.06.2020 17:00:00 11,5 9,1 19 10 26 14 S 36 0,0
02.06.2020 16:00:00 11,3 9,2 22 12 27 14 S 29 0,0
02.06.2020 15:00:00 12,4 8,9 22 12 29 16 S 35 0,0
02.06.2020 14:00:00 12,1 8,8 24 13 29 15 S 32 0,0
02.06.2020 13:00:00 11,6 8,8 24 13 29 16 S 35 0,0
02.06.2020 12:00:00 11,1 8,8 21 12 32 18 SSE 29 0,0
02.06.2020 11:00:00 10,7 8,6 23 12 27 15 SSE 37 0,0
02.06.2020 10:00:00 11,4 8,8 19 10 26 14 SSE 30 0,0
02.06.2020 09:00:00 11,8 9,0 23 12 30 16 SSE 30 0,0
02.06.2020 08:00:00 11,4 8,8 22 12 28 15 SSE 36 0,0
02.06.2020 07:00:00 11,2 8,9 21 11 26 14 SSE 38 0,0
02.06.2020 06:00:00 11,7 9,4 17 9 26 14 S 47 0,0
02.06.2020 05:00:00 12,1 9,1 22 12 27 15 SSE 50 0,0
02.06.2020 04:00:00 12,5 8,8 18 10 23 12 SE 50 0,0
02.06.2020 03:00:00 12,5 7,8 17 9 23 12 ESE 50 0,0
02.06.2020 02:00:00 12,2 8,5 14 7 16 8 ESE 50 0,0
02.06.2020 01:00:00 12,5 8,8 12 7 13 7 S 50 0,0
02.06.2020 00:00:00 12,4 8,9 10 5 13 7 S 50 0,0
01.06.2020 23:00:00 12,2 9,0 10 5 12 6 S 50 0,0
01.06.2020 22:00:00 12,1 9,1 8 4 9 5 S 50 0,0
01.06.2020 21:00:00 12,6 8,5 7 4 13 7 SSW 44 0,0
01.06.2020 20:00:00 12,8 8,7 8 4 10 6 WSW 39 0,0
01.06.2020 19:00:00 12,9 8,8 8 5 11 6 WSW 50 0,0
01.06.2020 18:00:00 13,2 8,7 6 3 10 6 S 45 0,0
01.06.2020 17:00:00 13,5 8,6 9 5 21 12 SSE 50 0,0
01.06.2020 16:00:00 13,7 6,8 17 9 22 12 SE 40 0,0
01.06.2020 15:00:00 12,5 8,4 13 7 20 11 SSE 50 0,0
01.06.2020 14:00:00 12,2 8,7 13 7 21 12 SE 48 0,0
01.06.2020 13:00:00 13,0 7,7 14 8 19 10 ESE 48 0,0
01.06.2020 12:00:00 12,2 7,9 17 9 22 12 E 47 0,0
01.06.2020 11:00:00 12,6 8,0 13 7 18 10 E 42 0,0
01.06.2020 10:00:00 - - - - - - - - -
01.06.2020 09:00:00 - - - - - - - - -
01.06.2020 08:00:00 15,6 6,6 16 9 21 12 N 40 0,0
01.06.2020 07:00:00 15,4 6,9 11 6 19 11 NW 37 0,0
01.06.2020 06:00:00 12,4 8,7 11 6 18 10 WNW 47 0,0
01.06.2020 05:00:00 13,6 6,6 12 7 21 11 NW 48 0,0
01.06.2020 04:00:00 13,5 6,2 14 7 23 12 NNW 50 0,0
01.06.2020 03:00:00 13,2 7,2 15 8 20 11 NNW 50 0,0
01.06.2020 02:00:00 11,1 7,0 13 7 16 8 NW 50 0,0
01.06.2020 01:00:00 10,5 8,6 7 4 9 5 W 50 0,0
01.06.2020 00:00:00 10,7 7,8 8 5 14 8 WSW 50 0,0
31.05.2020 23:00:00 10,9 7,4 11 6 13 7 S 50 0,0
31.05.2020 22:00:00 10,8 6,7 8 5 11 6 SSE 50 0,0
31.05.2020 21:00:00 10,9 7,2 10 5 15 8 SW 50 0,0
31.05.2020 20:00:00 11,1 6,8 13 7 19 11 SSW 49 0,0
31.05.2020 19:00:00 11,3 6,6 16 8 22 12 S 48 0,0
31.05.2020 18:00:00 12,0 6,1 19 10 24 13 S 41 0,0
31.05.2020 17:00:00 12,3 5,9 21 11 24 13 S 43 0,0
31.05.2020 16:00:00 12,8 6,2 17 9 22 12 SSE 40 0,0
31.05.2020 15:00:00 11,9 6,8 16 9 21 11 SSE 48 0,0
31.05.2020 14:00:00 12,0 7,1 14 8 18 10 SSE 47 0,0
31.05.2020 13:00:00 13,3 7,3 15 8 18 10 S 40 0,0
31.05.2020 12:00:00 13,6 7,8 11 6 13 7 S 42 0,0
31.05.2020 11:00:00 13,3 7,0 6 3 11 6 SSE 41 0,0
31.05.2020 10:00:00 14,0 4,0 0 0 9 5 N 36 0,0
31.05.2020 09:00:00 14,3 3,1 6 3 12 6 N 19 0,0
31.05.2020 08:00:00 13,5 4,9 8 4 17 9 NW 30 0,0
31.05.2020 07:00:00 11,8 5,4 9 5 16 9 NNW 42 0,0
31.05.2020 06:00:00 11,3 6,0 6 3 14 8 NW 23 0,0
31.05.2020 05:00:00 10,5 7,2 11 6 16 9 N 48 0,0
31.05.2020 04:00:00 9,9 5,5 11 6 16 9 NNW 50 0,0
31.05.2020 03:00:00 9,2 7,1 5 3 10 5 WNW 50 0,0
31.05.2020 02:00:00 10,0 6,7 9 5 13 7 SW 50 0,0
31.05.2020 01:00:00 10,4 6,5 9 5 17 9 SW 50 0,0
31.05.2020 00:00:00 10,5 6,3 11 6 17 9 WSW 50 0,0
30.05.2020 23:00:00 10,7 6,3 13 7 15 8 WSW 50 0,0
30.05.2020 22:00:00 10,8 6,4 14 7 16 9 WSW 50 0,0
30.05.2020 21:00:00 11,0 6,5 15 8 18 10 SW 50 0,0
30.05.2020 20:00:00 11,5 6,4 16 8 18 10 SW 50 0,0
30.05.2020 19:00:00 11,2 6,3 14 8 17 9 SW 46 0,0
30.05.2020 18:00:00 11,1 6,4 14 8 17 9 SW 46 0,0
30.05.2020 17:00:00 11,2 6,7 16 8 18 10 SW 43 0,0
30.05.2020 16:00:00 12,5 7,6 9 5 12 6 S 47 0,0
30.05.2020 15:00:00 12,3 7,4 9 5 12 7 S 44 0,0
30.05.2020 14:00:00 12,0 6,7 3 1 4 2 SSW 40 0,0
30.05.2020 13:00:00 12,3 5,9 0 0 3 2 N 35 0,0
30.05.2020 12:00:00 12,5 5,9 0 0 0 0 N 33 0,0
30.05.2020 11:00:00 12,1 4,6 0 0 11 6 N 15 0,0
30.05.2020 10:00:00 11,7 2,4 8 4 18 10 N 13 0,0
30.05.2020 09:00:00 11,1 3,9 13 7 21 11 N 24 0,0
30.05.2020 08:00:00 10,1 3,6 14 8 22 12 N 50 0,0
30.05.2020 07:00:00 10,0 4,2 13 7 30 16 NNW 46 0,0
30.05.2020 06:00:00 9,4 3,8 16 9 27 14 NNW 50 0,0
30.05.2020 05:00:00 9,0 3,8 11 6 24 13 NW 50 0,0
30.05.2020 04:00:00 8,7 3,5 16 9 23 12 NNW 50 0,0
30.05.2020 03:00:00 8,7 3,5 17 9 31 17 NNW 50 0,0
30.05.2020 02:00:00 9,2 3,4 18 10 33 18 NW 50 0,0
30.05.2020 01:00:00 10,0 3,1 21 12 32 18 NW 50 0,0
30.05.2020 00:00:00 10,6 4,1 18 10 26 14 NW 50 0,0
29.05.2020 23:00:00 11,1 4,3 17 9 28 15 NW 50 0,0
29.05.2020 22:00:00 11,5 3,8 16 9 32 18 NW 50 0,0
29.05.2020 21:00:00 12,2 3,2 21 11 36 19 NNW 50 0,0
29.05.2020 20:00:00 13,2 2,7 23 13 32 18 NW 50 0,0
29.05.2020 19:00:00 14,3 4,0 17 9 25 14 NW 47 0,0
29.05.2020 18:00:00 14,3 3,7 11 6 20 11 NW 50 0,0
29.05.2020 17:00:00 14,3 4,2 13 7 23 12 NW 50 0,0
29.05.2020 16:00:00 11,9 5,7 16 8 20 11 WSW 49 0,0
29.05.2020 15:00:00 10,7 6,3 9 5 16 9 SSW 50 0,0
29.05.2020 14:00:00 10,8 6,7 10 6 13 7 SSW 50 0,0
29.05.2020 13:00:00 11,2 5,7 8 4 21 11 WSW 39 0,0
29.05.2020 12:00:00 12,0 4,2 17 9 24 13 WNW 50 0,0
29.05.2020 11:00:00 10,4 5,4 18 10 29 16 WSW 42 0,0
29.05.2020 10:00:00 10,2 4,6 23 12 27 15 W 40 0,0
29.05.2020 09:00:00 9,6 4,8 16 9 20 11 WSW 50 0,0
29.05.2020 08:00:00 8,5 5,1 14 8 19 10 SW 50 0,0
29.05.2020 07:00:00 8,2 5,0 18 10 20 11 SW 47 0,0
29.05.2020 06:00:00 8,0 4,8 13 7 19 10 WSW 50 0,0
29.05.2020 05:00:00 8,0 4,6 8 4 19 10 WSW 50 0,0
29.05.2020 04:00:00 7,9 3,9 16 8 22 12 WSW 50 0,0
29.05.2020 03:00:00 8,1 4,3 19 10 26 14 W 50 0,0
29.05.2020 02:00:00 8,4 4,2 18 10 27 15 W 50 0,0
29.05.2020 01:00:00 8,8 4,4 23 13 30 16 W 50 0,0
29.05.2020 00:00:00 9,3 4,1 25 13 31 17 W 50 0,0
28.05.2020 23:00:00 9,4 5,4 20 11 24 13 W 50 0,0
28.05.2020 22:00:00 9,6 5,2 21 11 24 13 W 50 0,0
28.05.2020 21:00:00 10,0 5,0 19 10 27 14 W 50 0,0
28.05.2020 20:00:00 10,5 5,3 14 8 34 18 W 50 0,0
28.05.2020 19:00:00 10,5 4,8 19 10 24 13 SW 50 0,0
28.05.2020 18:00:00 9,2 5,6 13 7 21 11 SSW 50 0,0
28.05.2020 17:00:00 9,9 5,1 16 8 24 13 SSW 43 0,0
28.05.2020 16:00:00 9,2 5,0 20 11 27 15 S 50 0,0
28.05.2020 15:00:00 9,2 4,4 23 12 27 15 S 47 0,0
28.05.2020 14:00:00 9,5 4,1 23 12 27 14 S 50 0,0
28.05.2020 13:00:00 9,8 4,8 17 9 25 14 S 36 0,0
28.05.2020 12:00:00 10,9 5,2 13 7 18 10 S 42 0,0
28.05.2020 11:00:00 10,2 3,9 14 8 18 10 WSW 31 0,0
28.05.2020 10:00:00 9,5 3,9 9 5 14 8 SW 43 0,0
28.05.2020 09:00:00 9,5 3,5 12 7 23 13 W 34 0,0
28.05.2020 08:00:00 9,2 1,6 20 11 31 17 WNW 40 0,0
28.05.2020 07:00:00 8,5 1,9 27 15 34 18 WNW 47 0,0
28.05.2020 06:00:00 7,9 1,9 25 13 33 18 W 45 0,0
28.05.2020 05:00:00 7,4 1,8 26 14 36 19 W 41 0,0
28.05.2020 04:00:00 7,6 1,4 31 17 39 21 WNW 50 0,0
28.05.2020 03:00:00 8,0 2,2 27 15 40 22 WNW 50 0,0
28.05.2020 02:00:00 8,6 2,8 29 16 39 21 WNW 50 0,0
28.05.2020 01:00:00 9,3 2,8 29 16 44 24 WNW 50 0,0
28.05.2020 00:00:00 9,8 4,4 24 13 36 19 WNW 50 0,0
27.05.2020 23:00:00 11,2 3,1 25 14 32 17 WNW 50 0,0
27.05.2020 22:00:00 10,8 4,7 18 10 26 14 WNW 50 0,0
27.05.2020 21:00:00 12,4 2,5 14 7 26 14 NW 50 0,0

tt = temperature
td = dewpoint
ff = wind speed
fx = gusts
dd = wind direction
vv = visibility
rr = precipitation

Next stations